Time;durP1;ratioP1;P1;durP2;ratioP2;P2;SDS_P1;SDS_P2;PMS_P1;PMS_P2;Temp;Humidity;BMP_temperature;BMP_pressure;BME280_temperature;BME280_humidity;BME280_pressure;Samples;Min_cycle;Max_cycle;Signal;HPM_P1;HPM_P2
2021/03/12 00:00:23;;;;;;;68.55;41.70;;;;;;;0.27;84.84;95299.88;4991164;28;20049;-56
2021/03/12 00:02:51;;;;;;;66.45;39.88;;;;;;;0.24;84.91;95305.50;5007339;28;20422;-56
2021/03/12 00:05:19;;;;;;;62.10;37.85;;;;;;;0.21;85.38;95317.06;5006692;28;20070;-56
2021/03/12 00:07:46;;;;;;;57.15;36.47;;;;;;;0.23;85.07;95317.66;5008519;28;20042;-56
2021/03/12 00:10:19;;;;;;;62.85;38.83;;;;;;;0.26;85.82;95321.63;4990155;28;20054;-56
2021/03/12 00:12:47;;;;;;;65.63;36.35;;;;;;;0.29;85.70;95324.63;5004471;28;20042;-56
2021/03/12 00:15:16;;;;;;;60.92;38.97;;;;;;;0.28;85.32;95310.06;5019044;28;20398;-56
2021/03/12 00:17:45;;;;;;;56.13;34.35;;;;;;;0.29;85.61;95303.88;5007713;28;20529;-56
2021/03/12 00:20:19;;;;;;;55.50;33.92;;;;;;;0.32;85.62;95281.09;5007610;28;20053;-56
2021/03/12 00:22:47;;;;;;;57.47;32.65;;;;;;;0.29;85.71;95254.59;5008987;28;20057;-56
2021/03/12 00:25:18;;;;;;;61.78;37.53;;;;;;;0.26;85.43;95260.19;5004215;28;20046;-56
2021/03/12 00:27:46;;;;;;;55.15;34.47;;;;;;;0.23;85.85;95259.81;5021959;28;20053;-56
2021/03/12 00:30:13;;;;;;;63.15;35.05;;;;;;;0.22;85.95;95251.22;4990041;28;20068;-56
2021/03/12 00:32:42;;;;;;;75.43;43.63;;;;;;;0.19;85.32;95251.63;5006637;28;20502;-56
2021/03/12 00:35:10;;;;;;;70.95;43.05;;;;;;;0.13;86.03;95249.88;4975277;28;20129;-56
2021/03/12 00:37:37;;;;;;;69.97;43.42;;;;;;;0.08;85.79;95236.72;5019462;28;20600;-56
2021/03/12 00:40:17;;;;;;;61.15;37.95;;;;;;;0.08;86.15;95200.41;5007216;28;20049;-56
2021/03/12 00:42:45;;;;;;;68.55;40.53;;;;;;;0.07;86.63;95167.69;4989794;28;20469;-56
2021/03/12 00:45:15;;;;;;;67.28;40.30;;;;;;;0.01;87.08;95158.16;4988953;28;20062;-56
2021/03/12 00:47:47;;;;;;;60.08;35.75;;;;;;;0.00;87.30;95126.28;4990746;28;20038;-56
2021/03/12 00:50:21;;;;;;;70.50;41.70;;;;;;;-0.03;86.93;95111.91;5006103;28;20054;-56
2021/03/12 00:52:49;;;;;;;68.13;42.05;;;;;;;-0.04;87.48;95138.81;5001315;28;20046;-56
2021/03/12 00:55:19;;;;;;;61.72;36.58;;;;;;;-0.08;87.31;95124.72;5006556;28;20429;-56
2021/03/12 00:57:50;;;;;;;70.05;41.80;;;;;;;-0.07;87.54;95136.69;4972556;28;20050;-55
2021/03/12 01:00:23;;;;;;;65.97;41.10;;;;;;;-0.06;87.09;95130.47;5002083;28;20042;-56
2021/03/12 01:02:53;;;;;;;53.78;32.00;;;;;;;0.01;86.69;95119.28;5004540;28;20045;-56
2021/03/12 01:05:22;;;;;;;59.17;36.42;;;;;;;0.04;86.59;95098.13;5018529;28;20049;-56
2021/03/12 01:07:49;;;;;;;54.33;34.05;;;;;;;0.08;87.07;95100.06;4972853;28;20060;-57
2021/03/12 01:10:22;;;;;;;53.40;34.13;;;;;;;0.08;86.20;95094.09;5002482;28;20500;-56
2021/03/12 01:12:51;;;;;;;52.20;31.25;;;;;;;0.15;85.82;95087.06;5005689;28;20045;-57
2021/03/12 01:15:21;;;;;;;47.25;29.77;;;;;;;0.20;86.07;95063.88;5008715;28;20053;-56
2021/03/12 01:17:51;;;;;;;42.80;26.88;;;;;;;0.27;85.63;95092.34;4992954;28;20042;-57
2021/03/12 01:20:28;;;;;;;43.15;28.30;;;;;;;0.33;85.72;95114.06;4988355;28;20050;-57
2021/03/12 01:22:58;;;;;;;40.90;27.67;;;;;;;0.28;85.32;95106.91;5023377;28;20046;-56
2021/03/12 01:25:36;;;;;;;47.67;29.92;;;;;;;0.35;85.51;95123.25;4987963;28;20430;-56
2021/03/12 01:28:04;;;;;;;44.47;27.75;;;;;;;0.40;85.51;95143.38;4975339;28;20054;-57
2021/03/12 01:30:38;;;;;;;44.00;30.30;;;;;;;0.39;85.46;95126.22;5006500;28;20057;-56
2021/03/12 01:33:23;;;;;;;50.53;31.65;;;;;;;0.36;85.99;95134.41;5007514;28;20062;-58
2021/03/12 01:35:52;;;;;;;48.65;31.02;;;;;;;0.36;85.71;95118.84;5004761;28;20049;-56
2021/03/12 01:38:19;;;;;;;46.38;30.23;;;;;;;0.37;85.51;95131.59;4989979;28;20626;-57
2021/03/12 01:40:49;;;;;;;48.35;30.65;;;;;;;0.42;85.62;95123.19;5006094;28;20041;-56
2021/03/12 01:43:20;;;;;;;45.03;30.10;;;;;;;0.42;85.41;95131.75;5005750;28;20045;-56
2021/03/12 01:45:50;;;;;;;49.35;30.80;;;;;;;0.43;85.73;95130.75;5022404;28;20054;-56
2021/03/12 01:48:26;;;;;;;49.15;29.98;;;;;;;0.46;85.79;95119.16;5002914;28;20514;-56
2021/03/12 01:51:03;;;;;;;49.00;32.30;;;;;;;0.44;85.69;95110.78;5008689;28;20204;-56
2021/03/12 01:53:32;;;;;;;55.08;31.80;;;;;;;0.41;85.69;95100.84;5005111;28;20050;-56
2021/03/12 01:56:01;;;;;;;47.08;29.33;;;;;;;0.40;86.29;95120.78;4974497;28;20054;-56
2021/03/12 01:58:38;;;;;;;46.47;30.48;;;;;;;0.43;85.76;95104.81;4989862;28;20465;-57
2021/03/12 02:01:10;;;;;;;44.72;29.98;;;;;;;0.49;85.12;95097.22;5003554;28;20042;-56
2021/03/12 02:03:51;;;;;;;50.92;31.73;;;;;;;0.49;85.78;95112.78;5020086;28;20085;-56
2021/03/12 02:06:39;;;;;;;51.03;31.25;;;;;;;0.43;85.68;95117.00;4987433;28;20054;-56
2021/03/12 02:09:07;;;;;;;48.70;33.13;;;;;;;0.42;86.23;95107.63;4972825;28;20533;-56
2021/03/12 02:11:42;;;;;;;49.65;31.27;;;;;;;0.44;85.53;95118.56;5006983;28;20049;-57
2021/03/12 02:14:43;;;;;;;54.63;34.03;;;;;;;0.45;85.82;95120.97;5020596;28;20153;-56
2021/03/12 02:17:23;;;;;;;48.42;30.70;;;;;;;0.48;85.76;95124.94;4988920;28;20418;-58
2021/03/12 02:20:28;;;;;;;49.38;31.90;;;;;;;0.50;85.65;95120.34;5001089;28;20053;-56
2021/03/12 02:23:40;;;;;;;54.83;33.22;;;;;;;0.50;86.05;95133.31;4975984;28;20058;-56
2021/03/12 02:26:14;;;;;;;54.88;32.75;;;;;;;0.44;86.42;95121.16;4991334;28;20061;-56
2021/03/12 02:28:42;;;;;;;55.83;34.42;;;;;;;0.42;85.84;95099.84;5007548;28;20065;-57
2021/03/12 02:31:11;;;;;;;50.33;32.10;;;;;;;0.42;86.51;95089.47;5003384;28;20053;-58
2021/03/12 02:33:44;;;;;;;44.97;30.10;;;;;;;0.41;86.03;95111.22;4992218;28;20501;-56
2021/03/12 02:36:22;;;;;;;51.28;30.92;;;;;;;0.43;86.16;95114.41;5002508;28;20057;-56
2021/03/12 02:39:00;;;;;;;66.65;36.78;;;;;;;0.40;86.61;95126.00;5006342;28;20437;-57
2021/03/12 02:41:29;;;;;;;58.28;36.65;;;;;;;0.40;86.73;95109.63;5020329;28;20053;-56
2021/03/12 02:44:01;;;;;;;50.97;31.95;;;;;;;0.44;86.61;95109.00;5002601;28;20061;-56
2021/03/12 02:46:58;;;;;;;45.00;29.65;;;;;;;0.48;86.52;95086.00;5001616;28;20572;-57
2021/03/12 02:49:26;;;;;;;50.58;32.60;;;;;;;0.52;86.00;95104.53;5002103;28;20074;-56
2021/03/12 02:51:55;;;;;;;44.80;29.75;;;;;;;0.49;86.54;95095.38;5005565;28;20399;-57
2021/03/12 02:54:23;;;;;;;50.42;29.75;;;;;;;0.56;85.68;95085.75;5008938;28;20056;-60
2021/03/12 02:56:51;;;;;;;49.13;28.38;;;;;;;0.58;85.64;95078.53;5011563;28;20430;-57
2021/03/12 02:59:20;;;;;;;48.50;28.05;;;;;;;0.61;85.82;95072.94;5024416;28;20053;-56
2021/03/12 03:02:11;;;;;;;49.27;31.53;;;;;;;0.60;85.00;95086.91;5016913;28;20057;-57
2021/03/12 03:05:00;;;;;;;50.20;32.58;;;;;;;0.60;85.42;95107.66;4996601;28;20282;-56
2021/03/12 03:07:34;;;;;;;50.80;31.95;;;;;;;0.64;85.93;95095.06;4992013;28;20417;-57
2021/03/12 03:10:07;;;;;;;50.97;30.30;;;;;;;0.63;85.55;95098.66;5009771;28;20049;-56
2021/03/12 03:12:35;;;;;;;41.42;28.42;;;;;;;0.66;85.07;95087.06;4994484;28;20056;-56
2021/03/12 03:15:06;;;;;;;42.13;29.73;;;;;;;0.67;84.64;95078.28;5012225;28;20053;-57
2021/03/12 03:17:37;;;;;;;45.85;29.88;;;;;;;0.67;85.00;95099.84;5004048;28;20046;-56
2021/03/12 03:20:09;;;;;;;45.92;31.10;;;;;;;0.68;84.99;95122.19;4995984;28;20046;-56
2021/03/12 03:22:37;;;;;;;47.70;32.05;;;;;;;0.59;85.08;95118.28;4993524;28;20049;-56
2021/03/12 03:25:09;;;;;;;45.53;29.63;;;;;;;0.57;85.90;95091.75;4989283;28;21094;-56
2021/03/12 03:27:38;;;;;;;45.83;28.25;;;;;;;0.56;85.47;95098.72;5022706;28;20049;-56
2021/03/12 03:30:10;;;;;;;46.53;29.20;;;;;;;0.56;85.58;95103.13;5008579;28;20358;-56
2021/03/12 03:32:38;;;;;;;47.83;29.60;;;;;;;0.58;85.41;95085.53;4990848;28;20053;-57
2021/03/12 03:35:07;;;;;;;45.85;29.35;;;;;;;0.61;85.92;95062.53;5005032;28;20049;-56
2021/03/12 03:37:35;;;;;;;48.80;30.10;;;;;;;0.60;85.33;95045.38;5009547;28;20045;-58
2021/03/12 03:40:06;;;;;;;40.78;27.40;;;;;;;0.64;85.28;95044.97;5009562;28;20064;-56
2021/03/12 03:42:35;;;;;;;48.80;31.83;;;;;;;0.69;84.92;95081.44;5007510;28;20056;-56
2021/03/12 03:45:07;;;;;;;52.50;33.30;;;;;;;0.73;84.43;95086.00;5011507;28;20045;-56
2021/03/12 03:47:38;;;;;;;50.85;34.15;;;;;;;0.71;84.27;95087.22;5009209;28;20114;-56
2021/03/12 03:50:09;;;;;;;45.35;30.27;;;;;;;0.73;85.12;95077.41;5010964;28;20421;-56
2021/03/12 03:52:39;;;;;;;51.90;33.25;;;;;;;0.74;84.10;95068.63;4976475;28;20062;-57
2021/03/12 03:55:14;;;;;;;49.60;33.97;;;;;;;0.79;84.32;95070.56;5007839;28;20053;-56
2021/03/12 03:57:43;;;;;;;54.35;35.35;;;;;;;0.81;84.22;95079.72;5022255;28;20537;-56
2021/03/12 04:00:14;;;;;;;53.60;34.60;;;;;;;0.79;84.45;95084.38;4991986;28;20563;-56
2021/03/12 04:02:49;;;;;;;54.47;33.60;;;;;;;0.81;84.77;95084.91;4991255;28;20065;-57
2021/03/12 04:05:22;;;;;;;54.95;37.08;;;;;;;0.83;84.28;95082.13;5009623;28;20045;-56
2021/03/12 04:07:56;;;;;;;61.13;35.97;;;;;;;0.77;84.08;95084.56;5007580;28;20409;-56
2021/03/12 04:10:24;;;;;;;55.70;36.15;;;;;;;0.79;84.61;95102.53;4993660;28;20041;-56
2021/03/12 04:12:54;;;;;;;67.93;40.15;;;;;;;0.74;84.90;95115.34;5009070;28;20433;-56
2021/03/12 04:15:22;;;;;;;56.92;35.72;;;;;;;0.74;85.02;95116.13;5003570;28;20056;-56
2021/03/12 04:17:52;;;;;;;52.67;33.85;;;;;;;0.80;84.94;95111.09;5009995;28;20057;-56
2021/03/12 04:20:21;;;;;;;58.90;36.22;;;;;;;0.81;84.49;95116.06;5006925;28;20378;-56
2021/03/12 04:22:52;;;;;;;61.55;39.50;;;;;;;0.72;85.16;95123.38;4993424;28;20049;-56
2021/03/12 04:25:24;;;;;;;71.72;40.65;;;;;;;0.67;85.17;95109.44;5020849;28;20595;-56
2021/03/12 04:27:53;;;;;;;63.22;37.95;;;;;;;0.65;85.75;95112.22;5006277;28;20042;-56
2021/03/12 04:30:22;;;;;;;64.30;40.85;;;;;;;0.66;85.18;95115.63;5010405;28;20041;-56
2021/03/12 04:32:52;;;;;;;56.83;36.70;;;;;;;0.65;85.92;95130.41;4994009;28;20658;-56
2021/03/12 04:35:20;;;;;;;56.10;36.22;;;;;;;0.70;85.72;95155.72;5012403;28;20038;-56
2021/03/12 04:38:27;;;;;;;69.78;42.47;;;;;;;0.70;85.23;95142.72;5009341;28;20049;-57
2021/03/12 04:40:55;;;;;;;52.67;35.78;;;;;;;0.72;85.36;95154.50;5009123;28;20615;-57
2021/03/12 04:43:26;;;;;;;54.70;32.67;;;;;;;0.71;85.07;95158.13;5022740;28;20516;-57
2021/03/12 04:45:58;;;;;;;60.38;38.90;;;;;;;0.68;84.91;95162.91;5021813;28;20057;-56
2021/03/12 04:48:28;;;;;;;53.78;35.00;;;;;;;0.68;85.85;95173.28;4994610;28;20849;-57
2021/03/12 04:50:57;;;;;;;56.75;35.63;;;;;;;0.68;85.48;95147.34;4995004;28;20064;-56
2021/03/12 04:53:28;;;;;;;48.83;35.78;;;;;;;0.73;85.36;95155.28;5024075;28;20052;-56
2021/03/12 04:55:57;;;;;;;56.78;35.50;;;;;;;0.78;85.56;95168.44;5026106;28;20053;-56
2021/03/12 04:58:30;;;;;;;55.47;37.17;;;;;;;0.79;85.32;95166.63;4993293;28;20061;-56
2021/03/12 05:00:58;;;;;;;60.67;36.78;;;;;;;0.81;85.29;95162.03;5013958;28;20045;-56
2021/03/12 05:03:26;;;;;;;60.45;37.17;;;;;;;0.76;85.48;95160.84;4994347;28;20564;-56
2021/03/12 05:05:56;;;;;;;55.25;34.42;;;;;;;0.81;84.94;95165.41;5023989;28;20045;-57
2021/03/12 05:08:24;;;;;;;56.60;33.67;;;;;;;0.84;85.57;95177.97;5007507;28;20044;-57
2021/03/12 05:11:20;;;;;;;51.60;31.45;;;;;;;0.85;85.26;95153.59;5002269;28;20053;-57
2021/03/12 05:14:04;;;;;;;53.30;33.72;;;;;;;0.85;84.77;95145.03;5009517;28;20053;-57
2021/03/12 05:16:37;;;;;;;62.00;36.53;;;;;;;0.79;85.30;95154.47;5006365;28;20398;-57
2021/03/12 05:19:07;;;;;;;51.05;34.60;;;;;;;0.74;85.72;95168.06;5025643;28;20060;-59
2021/03/12 05:21:35;;;;;;;57.88;35.85;;;;;;;0.70;85.34;95147.94;5025384;28;20041;-56
2021/03/12 05:24:06;;;;;;;55.78;34.13;;;;;;;0.74;86.02;95173.25;5010625;28;20049;-56
2021/03/12 05:26:34;;;;;;;59.63;36.15;;;;;;;0.79;85.56;95169.22;5022415;28;20042;-56
2021/03/12 05:29:02;;;;;;;62.35;36.45;;;;;;;0.79;86.08;95164.84;5013348;28;20052;-56
2021/03/12 05:31:32;;;;;;;50.45;31.73;;;;;;;0.78;86.08;95184.03;5013302;28;20060;-56
2021/03/12 05:34:00;;;;;;;55.72;34.05;;;;;;;0.81;85.58;95193.19;5013108;28;20045;-56
2021/03/12 05:36:30;;;;;;;53.28;32.33;;;;;;;0.76;85.18;95186.03;4993042;28;20060;-56
2021/03/12 05:38:58;;;;;;;45.42;28.33;;;;;;;0.84;85.42;95188.34;4999105;28;20548;-56
2021/03/12 05:41:29;;;;;;;50.97;31.13;;;;;;;0.86;85.76;95185.56;5012640;28;20052;-56
2021/03/12 05:44:01;;;;;;;50.38;32.05;;;;;;;0.80;85.35;95181.97;5004295;28;20053;-56
2021/03/12 05:46:29;;;;;;;51.95;33.03;;;;;;;0.80;85.34;95192.38;4996799;28;20080;-57
2021/03/12 05:48:57;;;;;;;61.15;35.60;;;;;;;0.75;85.76;95200.78;5005789;28;20045;-56
2021/03/12 05:51:26;;;;;;;65.28;41.70;;;;;;;0.69;85.73;95193.06;4995441;28;20362;-56
2021/03/12 05:53:55;;;;;;;69.03;44.25;;;;;;;0.74;85.83;95193.22;5023647;28;20152;-57
2021/03/12 05:56:23;;;;;;;63.15;39.75;;;;;;;0.85;85.97;95210.72;4983338;28;20465;-57
2021/03/12 05:58:59;;;;;;;60.97;40.08;;;;;;;0.92;86.08;95208.84;4976276;28;20096;-57
2021/03/12 06:01:32;;;;;;;66.90;40.58;;;;;;;0.94;85.74;95202.66;4999697;28;20464;-57
2021/03/12 06:04:00;;;;;;;70.95;43.60;;;;;;;0.96;85.57;95200.66;4993414;28;20425;-56
2021/03/12 06:06:30;;;;;;;63.53;40.83;;;;;;;0.97;85.53;95184.06;5012264;28;20063;-56
2021/03/12 06:09:03;;;;;;;70.78;41.85;;;;;;;0.98;85.87;95193.44;5025203;28;20050;-57
2021/03/12 06:11:32;;;;;;;67.50;42.78;;;;;;;0.96;85.81;95196.25;4973914;28;20045;-57
2021/03/12 06:13:59;;;;;;;56.72;37.90;;;;;;;0.98;86.10;95209.03;4978276;28;20064;-56
2021/03/12 06:16:56;;;;;;;;;;;;;;;1.03;85.36;95227.38;5012691;28;20065;-56
2021/03/12 06:19:31;;;;;;;60.97;37.38;;;;;;;0.99;85.66;95232.19;5003817;28;19928;-56
2021/03/12 06:22:11;;;;;;;69.15;41.95;;;;;;;1.08;85.02;95248.28;5013193;28;20524;-57
2021/03/12 06:24:51;;;;;;;69.72;45.70;;;;;;;1.14;85.04;95250.06;5005909;28;20045;-57
2021/03/12 06:27:31;;;;;;;60.38;41.05;;;;;;;1.18;84.72;95247.81;5021625;28;20045;-56
2021/03/12 06:30:25;;;;;;;63.78;42.85;;;;;;;1.25;85.30;95264.13;5021685;28;20057;-57
2021/03/12 06:33:34;;;;;;;55.30;36.22;;;;;;;1.39;84.45;95264.84;5024775;28;20045;-56
2021/03/12 06:36:29;;;;;;;56.70;37.00;;;;;;;1.56;83.62;95251.28;4979049;28;20049;-58
2021/03/12 06:39:36;;;;;;;52.63;33.65;;;;;;;1.58;83.53;95257.88;4922062;28;20044;-56
2021/03/12 06:42:37;;;;;;;58.35;36.50;;;;;;;1.67;83.62;95255.75;4970299;28;20048;-56
2021/03/12 06:45:05;;;;;;;57.03;36.65;;;;;;;1.62;83.39;95268.63;4995391;28;20045;-56
2021/03/12 06:47:36;;;;;;;52.47;38.08;;;;;;;1.59;83.87;95275.06;5009983;28;20056;-57
2021/03/12 06:50:17;;;;;;;55.90;35.83;;;;;;;1.57;83.80;95263.28;5010640;28;20060;-56
2021/03/12 06:52:54;;;;;;;62.60;39.08;;;;;;;1.52;83.49;95267.31;5012117;28;20044;-57
2021/03/12 06:55:44;;;;;;;51.92;34.20;;;;;;;1.51;84.49;95281.31;5021007;28;20064;-57
2021/03/12 06:58:40;;;;;;;57.08;38.33;;;;;;;1.48;84.79;95279.16;5024547;28;20068;-57
2021/03/12 07:01:21;;;;;;;63.35;40.22;;;;;;;1.46;84.61;95281.16;5023321;28;20793;-56
2021/03/12 07:04:12;;;;;;;53.30;34.50;;;;;;;1.45;85.16;95300.38;4978824;28;21772;-57
2021/03/12 07:07:08;;;;;;;56.55;36.58;;;;;;;1.49;85.19;95301.53;4959972;28;20802;-57
2021/03/12 07:09:38;;;;;;;70.75;42.20;;;;;;;1.47;85.58;95315.75;5004376;28;20041;-57
2021/03/12 07:12:15;;;;;;;65.88;43.17;;;;;;;1.53;85.41;95320.09;4992799;28;20050;-57
2021/03/12 07:14:53;;;;;;;54.70;37.08;;;;;;;1.62;85.05;95308.41;4989808;28;20136;-57
2021/03/12 07:17:51;;;;;;;56.42;36.28;;;;;;;1.80;85.15;95336.25;4967064;28;20523;-57
2021/03/12 07:20:25;;;;;;;55.58;35.10;;;;;;;1.98;84.13;95316.47;4992935;28;20053;-57
2021/03/12 07:22:57;;;;;;;54.83;35.60;;;;;;;2.13;83.58;95329.94;5009202;28;20042;-57
2021/03/12 07:25:26;;;;;;;53.65;36.92;;;;;;;2.42;83.60;95290.38;5022668;28;20405;-57
2021/03/12 07:28:02;;;;;;;56.75;38.00;;;;;;;2.62;83.66;95313.56;5011220;28;20038;-57
2021/03/12 07:30:42;;;;;;;55.47;37.63;;;;;;;2.70;82.75;95302.06;5004097;28;20037;-57
2021/03/12 07:33:21;;;;;;;59.40;39.13;;;;;;;2.67;82.75;95318.09;4980289;28;20042;-57
2021/03/12 07:35:52;;;;;;;55.45;39.10;;;;;;;2.65;82.79;95326.13;5004094;28;20045;-57
2021/03/12 07:38:35;;;;;;;52.85;36.83;;;;;;;2.57;83.14;95319.44;5010335;28;20049;-57
2021/03/12 07:41:13;;;;;;;53.22;36.15;;;;;;;2.47;82.56;95324.34;5024267;28;20049;-57
2021/03/12 07:43:54;;;;;;;53.55;35.47;;;;;;;2.50;83.48;95323.13;5013764;28;20060;-57
2021/03/12 07:46:32;;;;;;;58.03;36.50;;;;;;;2.48;82.90;95312.91;5012417;28;20051;-57
2021/03/12 07:49:29;;;;;;;44.08;30.27;;;;;;;2.37;82.52;95319.66;5020799;28;20393;-57
2021/03/12 07:52:05;;;;;;;33.58;23.25;;;;;;;2.42;82.23;95316.41;5020566;28;20061;-57
2021/03/12 07:54:37;;;;;;;30.13;21.80;;;;;;;2.47;82.71;95319.13;5003578;28;20045;-57
2021/03/12 07:57:12;;;;;;;32.45;22.45;;;;;;;2.49;82.91;95322.31;5009182;28;20057;-57
2021/03/12 07:59:50;;;;;;;43.50;27.35;;;;;;;2.49;83.00;95335.34;5017318;28;20049;-57
2021/03/12 08:02:56;;;;;;;44.65;31.35;;;;;;;2.59;83.32;95322.59;5000341;28;20049;-59
2021/03/12 08:05:43;;;;;;;41.80;29.17;;;;;;;2.68;83.90;95330.91;5021798;28;20091;-57
2021/03/12 08:08:30;;;;;;;;;;;;;;;2.80;83.51;95327.53;5006739;28;20049;-57
2021/03/12 08:11:21;;;;;;;44.20;29.42;;;;;;;2.75;83.30;95341.22;5023243;28;20384;-57
2021/03/12 08:14:08;;;;;;;49.03;33.22;;;;;;;2.81;83.26;95308.31;5010834;28;20045;-57
2021/03/12 08:16:56;;;;;;;53.08;33.47;;;;;;;2.91;83.19;95319.78;5004307;28;20049;-57
2021/03/12 08:19:33;;;;;;;45.45;28.98;;;;;;;3.08;83.93;95330.38;4994153;28;20041;-57
2021/03/12 08:22:27;;;;;;;54.03;34.58;;;;;;;3.45;83.22;95323.41;4997640;28;20045;-57
2021/03/12 08:25:03;;;;;;;55.67;35.17;;;;;;;3.72;82.87;95359.50;5011175;28;20064;-57
2021/03/12 08:27:49;;;;;;;45.05;30.58;;;;;;;3.88;81.02;95329.34;5023488;28;20406;-56
2021/03/12 08:30:40;;;;;;;44.83;28.25;;;;;;;3.99;81.79;95334.56;4986348;28;20049;-57
2021/03/12 08:33:34;;;;;;;;;;;;;;;4.19;80.75;95330.78;5012736;28;20521;-57
2021/03/12 08:36:27;;;;;;;22.95;17.13;;;;;;;4.50;78.75;95338.44;4990623;28;19925;-57
2021/03/12 08:39:29;;;;;;;30.73;18.10;;;;;;;4.74;78.02;95334.75;5020763;28;20041;-57
2021/03/12 08:42:51;;;;;;;28.23;16.08;;;;;;;4.84;76.54;95335.97;5020054;28;20060;-57
2021/03/12 08:45:44;;;;;;;21.92;14.98;;;;;;;5.10;76.54;95332.00;5011401;28;20045;-56
2021/03/12 08:48:30;;;;;;;22.67;11.88;;;;;;;5.11;73.36;95343.22;5007627;28;20053;-56
2021/03/12 08:51:12;;;;;;;19.25;12.68;;;;;;;5.11;75.68;95338.00;5008494;28;20041;-57
2021/03/12 08:53:57;;;;;;;11.80;6.78;;;;;;;5.18;73.83;95342.06;5006915;28;20088;-59
2021/03/12 08:56:37;;;;;;;7.10;5.45;;;;;;;5.11;72.94;95341.41;5010958;28;20049;-57
2021/03/12 08:59:07;;;;;;;6.75;5.43;;;;;;;5.07;73.90;95346.31;5006720;28;20064;-56
2021/03/12 09:01:59;;;;;;;8.07;5.70;;;;;;;5.10;72.28;95326.78;5010376;28;20065;-57
2021/03/12 09:04:50;;;;;;;8.45;4.93;;;;;;;4.99;72.41;95336.25;5000351;28;20046;-57
2021/03/12 09:07:52;;;;;;;5.30;3.42;;;;;;;4.92;70.25;95333.78;5015404;28;20045;-57
2021/03/12 09:10:26;;;;;;;7.45;3.47;;;;;;;4.98;70.70;95349.56;5020036;28;20057;-56
2021/03/12 09:13:19;;;;;;;5.90;4.53;;;;;;;5.16;70.29;95327.66;5019797;28;20405;-57
2021/03/12 09:15:51;;;;;;;6.93;5.05;;;;;;;5.27;71.44;95320.75;4997398;28;20042;-57
2021/03/12 09:18:39;;;;;;;7.25;4.75;;;;;;;5.31;72.30;95329.72;4990994;28;21006;-57
2021/03/12 09:21:21;;;;;;;6.70;4.03;;;;;;;5.60;70.74;95324.44;5007029;28;20045;-57
2021/03/12 09:23:53;;;;;;;4.30;3.33;;;;;;;5.97;68.35;95326.50;4999362;28;20525;-57
2021/03/12 09:26:29;;;;;;;6.60;4.60;;;;;;;6.24;65.10;95324.06;5010251;28;20056;-57
2021/03/12 09:29:08;;;;;;;6.20;3.45;;;;;;;6.42;64.88;95340.50;5017225;28;20053;-56
2021/03/12 09:31:39;;;;;;;5.82;4.25;;;;;;;6.55;65.05;95328.88;5009745;28;20050;-57
2021/03/12 09:34:19;;;;;;;4.10;3.17;;;;;;;6.61;62.26;95340.97;5010568;28;20064;-56
2021/03/12 09:37:07;;;;;;;3.25;2.53;;;;;;;6.60;61.58;95294.84;4992609;28;20041;-57
2021/03/12 09:40:30;;;;;;;3.80;2.60;;;;;;;6.67;61.98;95321.69;4972348;28;20089;-57
2021/03/12 09:43:05;;;;;;;2.83;1.95;;;;;;;6.47;61.62;95332.72;4991438;28;20501;-56
2021/03/12 09:45:47;;;;;;;2.53;1.95;;;;;;;6.54;61.27;95343.00;5023723;28;20041;-57
2021/03/12 09:48:31;;;;;;;3.78;2.22;;;;;;;6.51;60.64;95340.88;5012667;28;20802;-57
2021/03/12 09:51:04;;;;;;;4.20;2.83;;;;;;;6.62;61.47;95334.72;5020778;28;20052;-57
2021/03/12 09:53:33;;;;;;;3.38;2.47;;;;;;;6.61;61.22;95344.41;5018317;28;20458;-57
2021/03/12 09:56:13;;;;;;;4.57;2.67;;;;;;;6.50;62.05;95336.66;5016439;28;20854;-57
2021/03/12 09:58:51;;;;;;;3.42;2.58;;;;;;;6.43;62.46;95358.59;5027036;28;20060;-57
2021/03/12 10:01:42;;;;;;;2.83;2.33;;;;;;;6.13;62.81;95372.88;5012417;28;20561;-57
2021/03/12 10:04:38;;;;;;;3.50;2.83;;;;;;;5.93;62.77;95357.63;4976197;28;20285;-57
2021/03/12 10:07:38;;;;;;;2.65;2.40;;;;;;;6.03;60.54;95375.34;5004093;28;20060;-57
2021/03/12 10:10:15;;;;;;;2.70;2.13;;;;;;;6.08;60.78;95388.53;4984900;28;20040;-58
2021/03/12 10:12:47;;;;;;;2.92;1.88;;;;;;;6.04;60.16;95384.78;5015299;28;20042;-56
2021/03/12 10:15:39;;;;;;;3.17;1.70;;;;;;;5.84;60.20;95414.84;4998184;28;20045;-57
2021/03/12 10:18:26;;;;;;;2.67;1.80;;;;;;;5.89;59.62;95408.88;5015025;28;20045;-56
2021/03/12 10:21:11;;;;;;;3.08;1.65;;;;;;;5.93;57.95;95398.72;4995946;28;20670;-56
2021/03/12 10:23:38;;;;;;;1.98;1.33;;;;;;;6.03;59.32;95440.03;5000657;28;20052;-56
2021/03/12 10:26:12;;;;;;;3.25;1.70;;;;;;;6.26;59.50;95428.56;5013068;28;20049;-56
2021/03/12 10:28:49;;;;;;;1.88;1.60;;;;;;;6.40;58.43;95442.13;5019532;28;20038;-59
2021/03/12 10:31:17;;;;;;;2.20;1.48;;;;;;;6.47;57.43;95433.06;5020272;28;20064;-56
2021/03/12 10:33:49;;;;;;;4.50;2.10;;;;;;;6.55;56.76;95444.94;4995419;28;20053;-56
2021/03/12 10:36:18;;;;;;;3.97;1.88;;;;;;;6.58;56.47;95452.34;5009589;28;21054;-56
2021/03/12 10:38:47;;;;;;;4.85;1.20;;;;;;;6.66;57.18;95445.09;4971839;28;20057;-63
2021/03/12 10:41:22;;;;;;;1.88;1.50;;;;;;;6.73;55.99;95450.97;4973344;28;20057;-59
2021/03/12 10:43:58;;;;;;;3.20;1.90;;;;;;;6.88;56.93;95466.09;4996791;28;20053;-56
2021/03/12 10:46:26;;;;;;;4.22;2.58;;;;;;;7.04;57.70;95467.88;4978107;28;20052;-56
2021/03/12 10:48:53;;;;;;;3.40;1.95;;;;;;;7.11;56.87;95467.69;5010635;28;20045;-56
2021/03/12 10:51:21;;;;;;;2.22;1.92;;;;;;;7.02;55.62;95454.22;5010879;28;20045;-56
2021/03/12 10:53:54;;;;;;;4.53;2.10;;;;;;;7.06;56.03;95471.06;5015466;28;20053;-57
2021/03/12 10:56:24;;;;;;;2.47;1.80;;;;;;;7.10;56.52;95475.78;5013215;28;20045;-56
2021/03/12 10:58:53;;;;;;;4.40;2.75;;;;;;;7.12;55.56;95485.03;5013348;28;20054;-56
2021/03/12 11:01:29;;;;;;;5.05;2.20;;;;;;;7.07;56.10;95483.13;4989642;28;20059;-56
2021/03/12 11:04:03;;;;;;;5.30;2.78;;;;;;;7.03;56.99;95491.69;5008163;28;20057;-56
2021/03/12 11:06:35;;;;;;;3.47;2.72;;;;;;;7.05;56.61;95500.13;4993419;28;20079;-56
2021/03/12 11:09:09;;;;;;;7.90;2.72;;;;;;;7.05;56.05;95500.13;5004999;28;20041;-56
2021/03/12 11:11:37;;;;;;;2.17;1.65;;;;;;;6.96;56.57;95499.75;5002910;28;20045;-56
2021/03/12 11:14:05;;;;;;;2.40;1.48;;;;;;;6.77;57.02;95493.97;4987838;28;20041;-56
2021/03/12 11:16:36;;;;;;;1.95;1.42;;;;;;;6.74;56.18;95500.50;5014973;28;20049;-56
2021/03/12 11:19:05;;;;;;;4.78;2.40;;;;;;;6.70;57.54;95507.28;4999882;28;20053;-57
2021/03/12 11:21:33;;;;;;;2.47;2.13;;;;;;;6.60;57.41;95502.69;4991650;28;20051;-57
2021/03/12 11:24:01;;;;;;;3.45;2.05;;;;;;;6.58;57.04;95504.75;4991986;28;20420;-56
2021/03/12 11:26:28;;;;;;;3.53;1.88;;;;;;;6.55;56.75;95518.31;5005290;28;20054;-56
2021/03/12 11:28:56;;;;;;;3.45;2.38;;;;;;;6.56;58.46;95516.50;5004738;28;20044;-57
2021/03/12 11:31:25;;;;;;;4.57;2.67;;;;;;;6.63;57.31;95518.97;5009000;28;20056;-57
2021/03/12 11:33:53;;;;;;;2.17;1.60;;;;;;;6.66;57.64;95521.09;4990672;28;20044;-56
2021/03/12 11:36:21;;;;;;;2.60;1.65;;;;;;;6.75;56.35;95517.06;5018496;28;20049;-57
2021/03/12 11:38:49;;;;;;;2.50;1.20;;;;;;;6.76;54.74;95518.63;4991366;28;20049;-56
2021/03/12 11:41:16;;;;;;;2.17;1.58;;;;;;;6.74;55.17;95518.84;4991826;28;20640;-56
2021/03/12 11:43:47;;;;;;;2.28;1.60;;;;;;;6.70;55.97;95520.41;4981308;28;20413;-56
2021/03/12 11:46:14;;;;;;;2.22;1.75;;;;;;;6.70;55.86;95530.06;5014162;28;20059;-56
2021/03/12 11:48:43;;;;;;;2.30;1.63;;;;;;;6.72;54.97;95533.25;4995321;28;20049;-57
2021/03/12 11:51:11;;;;;;;2.75;1.90;;;;;;;6.79;56.10;95533.09;5019307;28;20045;-57
2021/03/12 11:53:39;;;;;;;2.78;1.55;;;;;;;6.77;54.48;95517.56;5017257;28;20049;-57
2021/03/12 11:56:06;;;;;;;2.08;1.30;;;;;;;6.71;54.15;95516.72;4997621;28;20060;-56
2021/03/12 11:58:34;;;;;;;2.92;1.33;;;;;;;6.80;54.98;95532.06;5005267;28;20065;-58
2021/03/12 12:01:01;;;;;;;2.33;1.20;;;;;;;6.81;55.19;95526.56;5005632;28;20056;-57
2021/03/12 12:03:29;;;;;;;3.65;1.42;;;;;;;6.87;55.60;95527.41;5008804;28;20041;-57
2021/03/12 12:05:56;;;;;;;1.88;1.30;;;;;;;6.94;54.10;95520.19;5009111;28;20053;-56
2021/03/12 12:08:23;;;;;;;1.52;1.15;;;;;;;7.04;53.73;95528.19;5010202;28;20049;-56